createdAt,value
2022-12-25T07:02:40.410Z,95519.00
2022-12-25T07:04:40.190Z,95521.00
2022-12-25T07:05:40.178Z,95517.00
2022-12-25T07:06:40.168Z,95517.00
2022-12-25T07:07:40.158Z,95519.00
2022-12-25T07:08:40.146Z,95519.00
2022-12-25T07:09:40.134Z,95523.00
2022-12-25T07:10:40.133Z,95523.00
2022-12-25T07:11:40.119Z,95523.00
2022-12-25T07:12:40.109Z,95523.00
2022-12-25T07:13:40.111Z,95525.00
2022-12-25T07:14:40.089Z,95527.00
2022-12-25T07:15:40.091Z,95525.00
2022-12-25T07:16:40.168Z,95527.00
2022-12-25T07:17:40.082Z,95525.00
2022-12-25T07:18:40.095Z,95529.00
2022-12-25T07:19:44.867Z,95531.00
2022-12-25T07:20:40.039Z,95535.00
2022-12-25T07:21:40.026Z,95535.00
2022-12-25T07:22:40.047Z,95533.00
2022-12-25T07:23:40.019Z,95539.00
2022-12-25T07:24:39.999Z,95535.00
2022-12-25T07:25:40.001Z,95537.00
2022-12-25T07:26:39.990Z,95537.00
2022-12-25T07:27:39.979Z,95537.00
2022-12-25T07:28:40.004Z,95535.00
2022-12-25T07:29:39.954Z,95537.00
2022-12-25T07:30:39.947Z,95541.00
2022-12-25T07:31:40.003Z,95543.00
2022-12-25T07:32:39.932Z,95541.00
2022-12-25T07:33:39.937Z,95544.00
2022-12-25T07:34:39.920Z,95541.00
2022-12-25T07:35:39.918Z,95546.00
2022-12-25T07:36:39.891Z,95544.00
2022-12-25T07:37:39.881Z,95543.00
2022-12-25T07:38:39.873Z,95546.00
2022-12-25T07:39:39.887Z,95544.00
2022-12-25T07:40:39.858Z,95544.00
2022-12-25T07:41:39.843Z,95544.00
2022-12-25T07:42:39.834Z,95543.00
2022-12-25T07:43:39.821Z,95543.00
2022-12-25T07:44:39.812Z,95541.00
2022-12-25T07:45:39.857Z,95541.00
2022-12-25T07:46:39.800Z,95541.00
2022-12-25T07:47:39.802Z,95543.00
2022-12-25T07:48:39.777Z,95543.00
2022-12-25T07:49:39.764Z,95541.00
2022-12-25T07:50:39.756Z,95543.00
2022-12-25T07:51:39.773Z,95543.00
2022-12-25T07:52:43.701Z,95543.00
2022-12-25T07:53:39.748Z,95543.00
2022-12-25T07:54:39.719Z,95543.00
2022-12-25T07:55:39.705Z,95546.00
2022-12-25T07:56:39.699Z,95550.00
2022-12-25T07:57:39.703Z,95548.00
2022-12-25T07:58:39.680Z,95544.00
2022-12-25T07:59:39.669Z,95548.00
2022-12-25T08:00:39.759Z,95550.00
